createdAt,value
2022-10-05T00:01:54.839Z,8.90
2022-10-05T00:04:25.128Z,8.60
2022-10-05T00:07:01.646Z,9.13
2022-10-05T00:09:33.021Z,8.87
2022-10-05T00:12:07.191Z,8.90
2022-10-05T00:14:37.544Z,9.60
2022-10-05T00:17:06.566Z,8.27
2022-10-05T00:19:37.701Z,8.93
2022-10-05T00:22:13.191Z,8.67
2022-10-05T00:24:41.518Z,8.77
2022-10-05T00:27:19.071Z,9.10
2022-10-05T00:29:50.206Z,10.17
2022-10-05T00:32:18.504Z,8.80
2022-10-05T00:34:47.953Z,10.37
2022-10-05T00:37:16.635Z,9.90
2022-10-05T00:39:45.339Z,9.17
2022-10-05T00:42:39.355Z,10.27
2022-10-05T00:45:13.243Z,9.27
2022-10-05T00:47:55.798Z,9.13
2022-10-05T00:50:46.377Z,9.37
2022-10-05T00:53:28.589Z,9.33
2022-10-05T00:56:04.593Z,9.60
2022-10-05T00:58:50.034Z,9.90
2022-10-05T01:01:26.957Z,9.63
2022-10-05T01:04:06.243Z,9.03
2022-10-05T01:06:46.054Z,9.70
2022-10-05T01:09:19.712Z,9.10
2022-10-05T01:11:53.623Z,9.50
2022-10-05T01:14:28.964Z,9.00
2022-10-05T01:17:04.845Z,9.73
2022-10-05T01:20:06.600Z,9.23
2022-10-05T01:22:50.522Z,9.40
2022-10-05T01:25:24.826Z,9.30
2022-10-05T01:28:03.470Z,9.10
2022-10-05T01:30:37.627Z,9.37
2022-10-05T01:33:13.793Z,9.67
2022-10-05T01:35:52.246Z,8.50
2022-10-05T01:38:37.161Z,7.80
2022-10-05T01:41:16.901Z,7.43
2022-10-05T01:43:50.457Z,7.87
2022-10-05T01:46:28.515Z,8.00
2022-10-05T01:49:13.148Z,7.63
2022-10-05T01:51:53.503Z,7.40
2022-10-05T01:54:33.226Z,6.73
2022-10-05T01:57:07.962Z,7.40
2022-10-05T01:59:54.424Z,6.97
2022-10-05T02:02:25.385Z,7.30
2022-10-05T02:05:02.593Z,7.07
2022-10-05T02:07:35.494Z,7.37
2022-10-05T02:10:09.178Z,6.30
2022-10-05T02:12:39.470Z,6.40
2022-10-05T02:15:16.148Z,6.60
2022-10-05T02:17:49.552Z,6.43
2022-10-05T02:20:24.980Z,6.17
2022-10-05T02:22:55.557Z,6.33
2022-10-05T02:25:28.072Z,6.10
2022-10-05T02:28:03.327Z,5.80
2022-10-05T02:30:39.358Z,5.70
2022-10-05T02:33:11.626Z,6.60
2022-10-05T02:35:39.843Z,6.30
2022-10-05T02:38:15.537Z,5.77
2022-10-05T02:40:54.312Z,6.00
2022-10-05T02:43:30.750Z,5.80
2022-10-05T02:46:13.445Z,5.87
2022-10-05T02:48:49.745Z,5.10
2022-10-05T02:51:22.556Z,6.17
2022-10-05T02:54:02.243Z,6.00
2022-10-05T02:56:35.623Z,6.13
2022-10-05T02:59:12.310Z,6.00
2022-10-05T03:01:49.058Z,6.50
2022-10-05T03:04:27.354Z,5.60
2022-10-05T03:07:05.942Z,5.17
2022-10-05T03:09:42.882Z,5.90
2022-10-05T03:12:26.575Z,5.60
2022-10-05T03:15:04.736Z,5.20
2022-10-05T03:17:41.266Z,5.43
2022-10-05T03:20:19.181Z,5.40
2022-10-05T03:22:51.627Z,5.67
2022-10-05T03:26:13.817Z,5.60
2022-10-05T03:29:03.108Z,5.43
2022-10-05T03:31:38.007Z,4.87
2022-10-05T03:34:12.468Z,5.27
2022-10-05T03:36:50.399Z,4.90
2022-10-05T03:39:25.102Z,5.70
2022-10-05T03:42:01.557Z,5.47
2022-10-05T03:44:40.475Z,5.33
2022-10-05T03:47:20.621Z,5.77
2022-10-05T03:50:19.549Z,5.30
2022-10-05T03:52:52.595Z,4.80
2022-10-05T03:55:26.359Z,5.30
2022-10-05T03:57:58.716Z,5.07
2022-10-05T04:00:27.698Z,5.17
2022-10-05T04:03:03.270Z,4.60
2022-10-05T04:05:38.095Z,4.80
2022-10-05T04:08:10.527Z,4.50
2022-10-05T04:10:43.623Z,4.80
2022-10-05T04:13:17.584Z,4.90
2022-10-05T04:15:51.662Z,4.30
2022-10-05T04:18:26.677Z,4.93
2022-10-05T04:21:02.621Z,4.37
2022-10-05T04:23:42.404Z,3.90
2022-10-05T04:26:14.909Z,4.27
2022-10-05T04:28:52.577Z,4.60
2022-10-05T04:31:34.837Z,4.03
2022-10-05T04:34:10.534Z,4.30
2022-10-05T04:36:46.974Z,4.73
2022-10-05T04:39:23.848Z,4.50
2022-10-05T04:42:09.193Z,4.10
2022-10-05T04:44:57.083Z,4.50
2022-10-05T04:47:42.566Z,4.23
2022-10-05T04:50:24.848Z,4.40
2022-10-05T04:53:07.656Z,4.00
2022-10-05T04:55:48.050Z,4.40
2022-10-05T04:58:25.167Z,4.60
2022-10-05T05:01:04.216Z,4.10
2022-10-05T05:03:54.203Z,4.60
2022-10-05T05:06:33.723Z,3.93
2022-10-05T05:09:35.052Z,4.53
2022-10-05T05:12:17.149Z,3.77
2022-10-05T05:15:22.329Z,4.23
2022-10-05T05:18:06.053Z,4.33
2022-10-05T05:20:45.779Z,4.63
2022-10-05T05:23:22.286Z,4.77
2022-10-05T05:26:04.126Z,4.30
2022-10-05T05:28:41.044Z,4.47
2022-10-05T05:31:19.608Z,4.17
2022-10-05T05:33:58.108Z,4.97
2022-10-05T05:36:41.599Z,4.33
2022-10-05T05:39:25.398Z,4.40
2022-10-05T05:42:01.484Z,4.50
2022-10-05T05:44:38.558Z,4.57
2022-10-05T05:47:18.604Z,4.00
2022-10-05T05:50:04.279Z,4.57
2022-10-05T05:52:40.489Z,5.00
2022-10-05T05:55:19.041Z,4.43
2022-10-05T05:57:54.398Z,5.07
2022-10-05T06:00:25.174Z,4.80
2022-10-05T06:02:58.249Z,4.90
2022-10-05T06:05:32.515Z,4.50
2022-10-05T06:08:07.355Z,4.27
2022-10-05T06:10:41.577Z,4.30
2022-10-05T06:13:17.497Z,4.27
2022-10-05T06:15:50.835Z,4.23
2022-10-05T06:18:22.306Z,3.70
2022-10-05T06:20:55.257Z,4.30
2022-10-05T06:23:29.475Z,3.83
2022-10-05T06:26:18.225Z,3.90
2022-10-05T06:28:53.387Z,4.37
2022-10-05T06:31:36.832Z,4.00
2022-10-05T06:34:15.461Z,3.70
2022-10-05T06:36:50.053Z,3.93
2022-10-05T06:39:49.348Z,3.93
2022-10-05T06:42:34.564Z,3.40
2022-10-05T06:45:15.529Z,4.13
2022-10-05T06:47:50.945Z,4.47
2022-10-05T06:50:30.857Z,4.50
2022-10-05T06:53:09.952Z,4.53
2022-10-05T06:55:46.959Z,3.97
2022-10-05T06:58:27.952Z,4.00
2022-10-05T07:01:04.411Z,4.50
2022-10-05T07:03:42.499Z,4.33
2022-10-05T07:06:17.864Z,3.90
2022-10-05T07:09:04.429Z,4.57
2022-10-05T07:14:44.581Z,4.33
2022-10-05T07:17:29.275Z,3.60
2022-10-05T07:20:05.011Z,3.87
2022-10-05T07:22:51.471Z,3.63
2022-10-05T07:25:22.344Z,4.00
2022-10-05T07:27:56.088Z,3.37
2022-10-05T07:30:24.727Z,4.03
2022-10-05T07:33:05.436Z,3.97
2022-10-05T07:36:00.635Z,4.27
2022-10-05T07:38:34.543Z,4.40
2022-10-05T07:41:07.572Z,4.00
2022-10-05T07:44:01.627Z,3.80
2022-10-05T07:46:40.485Z,4.20
2022-10-05T07:49:19.517Z,4.50
2022-10-05T07:51:52.383Z,4.23
2022-10-05T07:54:26.358Z,4.10
2022-10-05T07:57:01.512Z,5.10
2022-10-05T07:59:35.742Z,4.87
2022-10-05T08:02:13.923Z,4.30
2022-10-05T08:04:52.564Z,4.47
2022-10-05T08:07:21.435Z,4.37
2022-10-05T08:09:55.911Z,4.40
2022-10-05T08:12:33.376Z,4.43
2022-10-05T08:15:06.578Z,5.03
2022-10-05T08:17:44.818Z,4.17
2022-10-05T08:20:29.544Z,4.30
2022-10-05T08:23:03.398Z,4.70
2022-10-05T08:25:42.108Z,4.83
2022-10-05T08:28:18.939Z,4.60
2022-10-05T08:30:56.207Z,4.63
2022-10-05T08:33:27.851Z,4.77
2022-10-05T08:36:07.272Z,4.80
2022-10-05T08:38:36.227Z,5.20
2022-10-05T08:41:46.219Z,4.67
2022-10-05T08:44:48.052Z,5.13
2022-10-05T08:47:22.743Z,5.20
2022-10-05T08:50:32.883Z,5.27
2022-10-05T08:53:24.559Z,4.80
2022-10-05T08:56:10.618Z,4.50
2022-10-05T08:58:57.789Z,5.20
2022-10-05T09:01:43.573Z,4.50
2022-10-05T09:04:33.868Z,6.13
2022-10-05T09:07:22.016Z,5.77
2022-10-05T09:10:19.033Z,5.27
2022-10-05T09:13:42.106Z,5.20
2022-10-05T09:16:28.110Z,5.10
2022-10-05T09:19:26.100Z,5.30
2022-10-05T09:21:59.873Z,5.00
2022-10-05T09:24:32.601Z,5.30
2022-10-05T09:27:15.037Z,5.67
2022-10-05T09:30:19.348Z,4.90
2022-10-05T09:33:15.634Z,4.97
2022-10-05T09:36:25.599Z,5.20
2022-10-05T09:39:23.778Z,5.77
2022-10-05T09:42:21.572Z,4.97
2022-10-05T09:45:21.127Z,5.13
2022-10-05T09:48:26.042Z,5.03
2022-10-05T09:51:26.035Z,5.00
2022-10-05T09:54:23.929Z,4.93
2022-10-05T09:57:12.319Z,4.60
2022-10-05T10:00:09.154Z,4.83
2022-10-05T10:03:05.489Z,4.40
2022-10-05T10:05:56.247Z,5.17
2022-10-05T10:08:37.511Z,4.97
2022-10-05T10:11:17.979Z,5.17
2022-10-05T10:14:14.933Z,5.63
2022-10-05T10:17:01.746Z,5.63
2022-10-05T10:19:57.744Z,5.10
2022-10-05T10:23:08.365Z,5.17
2022-10-05T10:26:17.367Z,5.30
2022-10-05T10:29:11.081Z,4.93
2022-10-05T10:32:07.639Z,5.40
2022-10-05T10:34:58.496Z,3.93
2022-10-05T10:38:17.337Z,4.50
2022-10-05T10:41:17.981Z,3.83
2022-10-05T10:44:30.959Z,3.93
2022-10-05T10:47:24.630Z,3.73
2022-10-05T10:50:16.943Z,3.50
2022-10-05T10:52:54.974Z,3.43
2022-10-05T10:55:38.744Z,2.90
2022-10-05T10:58:42.240Z,2.07
2022-10-05T11:01:31.354Z,2.23
2022-10-05T11:04:38.024Z,2.80
2022-10-05T11:07:40.731Z,2.80
2022-10-05T11:10:50.753Z,2.43
2022-10-05T11:13:49.253Z,2.70
2022-10-05T11:16:46.156Z,1.93
2022-10-05T11:20:02.993Z,1.90
2022-10-05T11:22:59.793Z,2.60
2022-10-05T11:25:42.947Z,2.63
2022-10-05T11:28:27.563Z,2.67
2022-10-05T11:31:26.416Z,2.47
2022-10-05T11:34:26.847Z,2.30
2022-10-05T11:37:12.023Z,2.20
2022-10-05T11:39:46.161Z,2.60
2022-10-05T11:42:55.940Z,2.63
2022-10-05T11:45:30.958Z,3.37
2022-10-05T11:48:40.276Z,2.53
2022-10-05T11:51:41.884Z,3.40
2022-10-05T11:54:58.588Z,3.33
2022-10-05T11:57:35.102Z,3.00
2022-10-05T12:00:13.048Z,3.10
2022-10-05T12:03:10.463Z,2.80
2022-10-05T12:05:51.335Z,2.80
2022-10-05T12:08:31.316Z,2.30
2022-10-05T12:11:10.287Z,2.40
2022-10-05T12:13:44.746Z,5.23
2022-10-05T12:16:19.666Z,3.20
2022-10-05T12:18:55.376Z,2.37
2022-10-05T12:21:43.456Z,1.97
2022-10-05T12:24:23.370Z,2.37
2022-10-05T12:27:02.082Z,1.67
2022-10-05T12:29:40.725Z,2.20
2022-10-05T12:32:13.974Z,1.90
2022-10-05T12:34:51.185Z,2.07
2022-10-05T12:37:40.413Z,1.90
2022-10-05T12:40:26.359Z,1.80
2022-10-05T12:43:06.159Z,2.03
2022-10-05T12:45:54.484Z,2.13
2022-10-05T12:48:56.196Z,2.23
2022-10-05T12:51:35.920Z,1.90
2022-10-05T12:54:13.649Z,2.30
2022-10-05T12:56:48.751Z,2.17
2022-10-05T12:59:31.676Z,2.27
2022-10-05T13:02:07.422Z,2.20
2022-10-05T13:04:42.699Z,1.90
2022-10-05T13:07:29.629Z,2.47
2022-10-05T13:10:06.657Z,2.90
2022-10-05T13:15:25.256Z,2.57
2022-10-05T13:18:05.326Z,2.97
2022-10-05T13:20:38.965Z,3.67
2022-10-05T13:23:14.972Z,2.60
2022-10-05T13:25:51.744Z,3.60
2022-10-05T13:28:26.061Z,2.93
2022-10-05T13:31:06.486Z,2.87
2022-10-05T13:33:58.257Z,3.43
2022-10-05T13:36:36.520Z,3.33
2022-10-05T13:39:11.599Z,3.47
2022-10-05T13:41:51.886Z,4.40
2022-10-05T13:44:26.976Z,4.10
2022-10-05T13:47:03.245Z,3.80
2022-10-05T13:49:42.745Z,4.60
2022-10-05T13:52:21.707Z,4.50
2022-10-05T13:54:57.852Z,3.77
2022-10-05T13:57:46.167Z,3.40
2022-10-05T14:00:26.312Z,4.20
2022-10-05T14:02:58.803Z,3.67
2022-10-05T14:05:29.131Z,4.07
2022-10-05T14:07:59.332Z,3.50
2022-10-05T14:10:37.593Z,3.40
2022-10-05T14:13:22.798Z,3.30
2022-10-05T14:16:05.233Z,3.07
2022-10-05T14:18:38.159Z,3.10
2022-10-05T14:21:22.184Z,3.07
2022-10-05T14:23:50.670Z,3.27
2022-10-05T14:26:31.780Z,3.17
2022-10-05T14:29:02.847Z,3.47
2022-10-05T14:31:35.296Z,3.53
2022-10-05T14:34:30.063Z,3.20
2022-10-05T14:37:01.016Z,4.13
2022-10-05T14:39:34.049Z,3.67
2022-10-05T14:42:14.834Z,3.23
2022-10-05T14:44:43.524Z,3.33
2022-10-05T14:47:22.721Z,4.00
2022-10-05T14:50:09.658Z,3.87
2022-10-05T14:52:41.191Z,3.33
2022-10-05T14:55:24.946Z,3.83
2022-10-05T14:58:06.904Z,3.40
2022-10-05T15:00:43.614Z,4.67
2022-10-05T15:03:31.376Z,4.17
2022-10-05T15:06:03.863Z,5.10
2022-10-05T15:08:48.840Z,4.00
2022-10-05T15:11:26.768Z,4.07
2022-10-05T15:13:56.475Z,5.00
2022-10-05T15:16:28.455Z,4.67
2022-10-05T15:19:04.458Z,4.60
2022-10-05T15:22:01.421Z,4.90
2022-10-05T15:24:38.919Z,4.57
2022-10-05T15:27:17.846Z,3.93
2022-10-05T15:30:04.620Z,5.20
2022-10-05T15:32:43.174Z,4.00
2022-10-05T15:35:38.172Z,3.40
2022-10-05T15:38:16.467Z,5.10
2022-10-05T15:40:50.558Z,4.17
2022-10-05T15:43:22.215Z,3.40
2022-10-05T15:45:58.327Z,3.50
2022-10-05T15:48:36.034Z,2.93
2022-10-05T15:51:15.302Z,3.23
2022-10-05T15:54:13.718Z,3.67
2022-10-05T15:56:49.145Z,3.00
2022-10-05T15:59:25.335Z,3.97
2022-10-05T16:01:57.843Z,3.63
2022-10-05T16:04:37.751Z,3.80
2022-10-05T16:07:39.363Z,3.40
2022-10-05T16:10:17.390Z,2.63
2022-10-05T16:15:48.738Z,2.40
2022-10-05T16:18:56.448Z,2.47
2022-10-05T16:21:33.457Z,2.30
2022-10-05T16:24:16.598Z,2.20
2022-10-05T16:26:57.281Z,2.00
2022-10-05T16:29:39.635Z,2.10
2022-10-05T16:32:15.028Z,2.23
2022-10-05T16:34:56.202Z,2.00
2022-10-05T16:37:31.021Z,2.03
2022-10-05T16:40:01.336Z,2.20
2022-10-05T16:42:46.425Z,1.97
2022-10-05T16:45:45.779Z,2.30
2022-10-05T16:48:22.230Z,2.10
2022-10-05T16:51:08.720Z,2.00
2022-10-05T16:53:41.266Z,1.83
2022-10-05T16:56:14.796Z,2.40
2022-10-05T16:58:57.998Z,2.20
2022-10-05T17:01:42.483Z,2.37
2022-10-05T17:04:25.852Z,2.63
2022-10-05T17:07:11.977Z,2.30
2022-10-05T17:09:52.447Z,2.40
2022-10-05T17:12:33.889Z,2.40
2022-10-05T17:15:19.392Z,2.37
2022-10-05T17:18:09.113Z,3.10
2022-10-05T17:20:49.264Z,2.80
2022-10-05T17:23:32.160Z,3.20
2022-10-05T17:26:29.652Z,3.77
2022-10-05T17:29:09.457Z,4.00
2022-10-05T17:32:19.309Z,3.70
2022-10-05T17:35:18.713Z,3.60
2022-10-05T17:38:14.246Z,5.07
2022-10-05T17:41:03.238Z,7.83
2022-10-05T17:43:32.582Z,6.77
2022-10-05T17:46:02.019Z,6.00
2022-10-05T17:49:01.385Z,5.80
2022-10-05T17:52:17.368Z,5.83
2022-10-05T17:55:30.713Z,6.70
2022-10-05T17:58:02.440Z,6.43
2022-10-05T18:00:51.014Z,6.47
2022-10-05T18:03:38.935Z,6.13
2022-10-05T18:06:37.423Z,6.10
2022-10-05T18:09:33.154Z,6.40
2022-10-05T18:12:33.876Z,5.83
2022-10-05T18:15:04.246Z,7.80
2022-10-05T18:17:45.414Z,10.83
2022-10-05T18:20:30.489Z,16.23
2022-10-05T18:23:40.699Z,13.03
2022-10-05T18:26:29.171Z,9.83
2022-10-05T18:29:14.172Z,8.20
2022-10-05T18:31:52.744Z,6.57
2022-10-05T18:34:31.786Z,5.73
2022-10-05T18:37:16.674Z,5.40
2022-10-05T18:40:17.077Z,5.77
2022-10-05T18:42:55.170Z,7.27
2022-10-05T18:45:28.111Z,5.80
2022-10-05T18:48:12.024Z,6.30
2022-10-05T18:50:48.623Z,6.53
2022-10-05T18:53:26.915Z,6.47
2022-10-05T18:56:02.292Z,6.57
2022-10-05T18:58:38.036Z,6.43
2022-10-05T19:01:42.133Z,7.17
2022-10-05T19:04:23.545Z,7.53
2022-10-05T19:07:02.045Z,7.23
2022-10-05T19:09:58.421Z,7.90
2022-10-05T19:12:41.434Z,8.47
2022-10-05T19:15:17.954Z,7.40
2022-10-05T19:17:59.839Z,7.17
2022-10-05T19:20:35.657Z,6.97
2022-10-05T19:23:31.642Z,7.27
2022-10-05T19:26:10.317Z,6.77
2022-10-05T19:28:47.560Z,7.90
2022-10-05T19:31:30.260Z,7.97
2022-10-05T19:34:16.554Z,9.37
2022-10-05T19:36:59.199Z,7.93
2022-10-05T19:39:38.810Z,8.40
2022-10-05T19:42:44.501Z,8.50
2022-10-05T19:45:23.381Z,8.63
2022-10-05T19:48:10.257Z,7.53
2022-10-05T19:50:40.027Z,8.40
2022-10-05T19:53:15.026Z,8.67
2022-10-05T19:55:46.109Z,8.27
2022-10-05T19:58:22.951Z,8.57
2022-10-05T20:01:00.015Z,8.23
2022-10-05T20:03:31.913Z,9.37
2022-10-05T20:06:02.129Z,8.80
2022-10-05T20:08:39.982Z,8.13
2022-10-05T20:11:14.391Z,7.97
2022-10-05T20:13:48.782Z,8.70
2022-10-05T20:16:45.321Z,9.07
2022-10-05T20:19:55.110Z,9.80
2022-10-05T20:22:34.849Z,10.63
2022-10-05T20:25:05.985Z,9.87
2022-10-05T20:27:38.129Z,10.57
2022-10-05T20:30:08.172Z,9.27
2022-10-05T20:32:36.502Z,9.03
2022-10-05T20:35:07.894Z,9.70
2022-10-05T20:37:36.882Z,9.13
2022-10-05T20:40:06.474Z,9.27
2022-10-05T20:42:34.891Z,9.43
2022-10-05T20:45:04.202Z,10.90
2022-10-05T20:47:33.141Z,9.33
2022-10-05T20:50:05.578Z,9.00
2022-10-05T20:52:35.258Z,9.27
2022-10-05T20:55:04.436Z,9.00
2022-10-05T20:57:32.749Z,8.30
2022-10-05T21:00:01.039Z,8.97
2022-10-05T21:02:29.628Z,8.80
2022-10-05T21:04:57.936Z,8.10
2022-10-05T21:07:26.257Z,8.23
2022-10-05T21:09:55.951Z,9.13
2022-10-05T21:12:24.259Z,8.37
2022-10-05T21:14:53.197Z,8.17
2022-10-05T21:17:21.484Z,10.67
2022-10-05T21:19:50.335Z,9.60
2022-10-05T21:22:18.610Z,8.77
2022-10-05T21:24:48.500Z,9.10
2022-10-05T21:27:18.606Z,9.40
2022-10-05T21:29:47.368Z,9.27
2022-10-05T21:32:15.671Z,8.87
2022-10-05T21:34:43.957Z,8.43
2022-10-05T21:37:12.236Z,8.20
2022-10-05T21:39:40.515Z,9.70
2022-10-05T21:42:08.803Z,9.40
2022-10-05T21:44:39.824Z,9.73
2022-10-05T21:47:08.220Z,10.27
2022-10-05T21:49:37.654Z,9.73
2022-10-05T21:52:06.827Z,9.30
2022-10-05T21:54:35.911Z,10.40
2022-10-05T21:57:04.722Z,10.00
2022-10-05T21:59:35.503Z,9.37
2022-10-05T22:02:05.730Z,9.40
2022-10-05T22:04:34.009Z,9.17
2022-10-05T22:07:02.341Z,10.10
2022-10-05T22:09:30.663Z,10.70
2022-10-05T22:11:58.930Z,10.83
2022-10-05T22:14:28.396Z,10.13
2022-10-05T22:16:56.696Z,11.50
2022-10-05T22:19:26.454Z,11.40
2022-10-05T22:21:54.720Z,12.17
2022-10-05T22:24:23.096Z,11.90
2022-10-05T22:26:52.906Z,11.77
2022-10-05T22:29:21.773Z,12.60
2022-10-05T22:31:50.390Z,12.60
2022-10-05T22:34:19.373Z,11.60
2022-10-05T22:36:49.558Z,13.20
2022-10-05T22:39:19.464Z,12.97
2022-10-05T22:41:47.938Z,12.80
2022-10-05T22:44:16.222Z,10.90
2022-10-05T22:46:44.580Z,13.10
2022-10-05T22:49:12.842Z,12.93
2022-10-05T22:51:41.122Z,11.33
2022-10-05T22:54:10.842Z,11.80
2022-10-05T22:56:39.120Z,11.13
2022-10-05T22:59:07.410Z,10.93
2022-10-05T23:01:35.771Z,10.53
2022-10-05T23:04:04.559Z,10.43
2022-10-05T23:06:33.089Z,11.30
2022-10-05T23:09:01.374Z,10.27
2022-10-05T23:11:31.474Z,9.67
2022-10-05T23:16:35.211Z,10.90
2022-10-05T23:19:03.580Z,12.33
2022-10-05T23:21:32.100Z,12.90
2022-10-05T23:24:00.388Z,10.87
2022-10-05T23:26:30.087Z,12.57
2022-10-05T23:28:58.640Z,12.10
2022-10-05T23:31:30.319Z,12.33
2022-10-05T23:33:58.634Z,10.90
2022-10-05T23:36:31.381Z,10.90
2022-10-05T23:39:00.109Z,11.13
2022-10-05T23:41:28.715Z,12.77
2022-10-05T23:43:58.379Z,13.07
2022-10-05T23:46:26.749Z,12.63
2022-10-05T23:48:55.080Z,14.50
2022-10-05T23:51:23.373Z,14.37
2022-10-05T23:53:51.691Z,14.70
2022-10-05T23:56:19.978Z,14.60
2022-10-05T23:58:48.255Z,15.20
